Terminal Aerodrome Forecast
Issued by NWS

Home | Current Version | Previous Version | Text Only | Print | Product List | Glossary On
Versions: 1 2 3 4 5 6 7 8 9 10 11 12 13 14 15 16
000
FTUS43 KIND 231700
TAFHUF
TAF
KHUF 231849Z 2318/2418 VRB05KT P6SM SCT250
     FM232300 08006KT P6SM BKN100
     FM240200 11006KT P6SM SCT060 BKN100
     FM241400 14011KT P6SM BKN100=

USA.gov is the U.S. government's official web portal to all federal, state and local government web resources and services.